Aérodrome :
LOGIN :

S'inscrire | Disclaimer

   EN    FR    IT 

 










Légende :    VFR   VFR Marginal   IFR   IFR Intensif   IFR Très Intensif
Visi : 
Plafond : 
>= 8 km
>= 3000ft
5 à 8 km
1000 à 3000 ft
1500m à 5 km
500 à 1000 ft
800 à 1500m
200 à 500 ft
< 800m
< 200 ft
Symboles :   Orages  Brouillard  Fortes neiges  Fortes précipitations  Vent > 20 kt
SIGMETs :   Divers  Orages  Givrage  Turbulence  Onde Orograph.  Cendres Volcan.






- Altitude de l'aérodrome : 190 ft
- Code IATA : CAX


EGNC - Carlisle

DERNIER METAR :
  • 171550Z 26012KT 9999 BKN035 05/02 Q1008

METARs EXPIRÉS :
  • 171520Z 26008KT 9999 SCT035 05/02 Q1007
  • 171450Z 26011KT 9999 SCT035 05/02 Q1007
  • 171420Z 26010KT 9999 SCT035 05/03 Q1007
  • 171320Z 26011KT 9999 SCT025 05/02 Q1006

TAF TAF EGNC
Valide du 17 à 15h jusqu'au 17 à 18h UTC


171400Z 1715/1718 25009KT 9999 SCT030
PROB40
TEMPO 1716/1718 7000 SHRA BKN014
ATIS : +44 1228 574 123



MET'MAP, la Météo Aéronautique d'un coup d'oeil ! - Copyright ORBIFLY Décembre 2007 - Disclaimer

ORBIFLY MET'MAP TEAM :

Programmation & Développement : Alexandra Zaïnal
Sur une idée originale de : Baudouin d'Aumeries
Assistance à la programmation : Marc-Olivier Méhu
Soutien technique & logistique : Manuel Goepfert

Contact : metmap@orbifly.com




SOURCES & CREDITS :

   NOAA